sensor_id;sensor_type;location;lat;lon;timestamp;pressure;altitude;pressure_sealevel;temperature;humidity
3960;BME280;1994;48.640;8.894;2022-08-01T00:01:59;96243.81;;;21.94;54.61
3960;BME280;1994;48.640;8.894;2022-08-01T00:04:25;96237.06;;;21.79;55.07
3960;BME280;1994;48.640;8.894;2022-08-01T00:06:50;96234.25;;;21.76;55.55
3960;BME280;1994;48.640;8.894;2022-08-01T00:09:16;96234.97;;;21.68;55.52
3960;BME280;1994;48.640;8.894;2022-08-01T00:11:42;96242.38;;;21.66;55.50
3960;BME280;1994;48.640;8.894;2022-08-01T00:14:08;96240.03;;;21.64;55.67
3960;BME280;1994;48.640;8.894;2022-08-01T00:16:36;96240.19;;;21.46;56.47
3960;BME280;1994;48.640;8.894;2022-08-01T00:19:02;96240.19;;;21.46;56.74
3960;BME280;1994;48.640;8.894;2022-08-01T00:21:28;96238.22;;;21.51;56.54
3960;BME280;1994;48.640;8.894;2022-08-01T00:23:53;96240.69;;;21.48;57.14
3960;BME280;1994;48.640;8.894;2022-08-01T00:26:19;96244.22;;;21.43;57.24
3960;BME280;1994;48.640;8.894;2022-08-01T00:28:45;96246.19;;;21.38;57.69
3960;BME280;1994;48.640;8.894;2022-08-01T00:31:11;96254.38;;;21.36;57.12
3960;BME280;1994;48.640;8.894;2022-08-01T00:33:37;96256.38;;;21.31;57.47
3960;BME280;1994;48.640;8.894;2022-08-01T00:36:03;96261.03;;;21.34;57.13
3960;BME280;1994;48.640;8.894;2022-08-01T00:38:29;96260.44;;;21.37;56.50
3960;BME280;1994;48.640;8.894;2022-08-01T00:40:55;96265.09;;;21.40;56.24
3960;BME280;1994;48.640;8.894;2022-08-01T00:43:20;96266.69;;;21.41;55.91
3960;BME280;1994;48.640;8.894;2022-08-01T00:45:46;96262.00;;;21.38;56.12
3960;BME280;1994;48.640;8.894;2022-08-01T00:48:12;96266.78;;;21.36;56.48
3960;BME280;1994;48.640;8.894;2022-08-01T00:50:38;96261.03;;;21.34;56.61
3960;BME280;1994;48.640;8.894;2022-08-01T00:53:05;96270.63;;;21.30;56.14
3960;BME280;1994;48.640;8.894;2022-08-01T00:55:31;96267.00;;;21.26;56.36
3960;BME280;1994;48.640;8.894;2022-08-01T00:58:00;96262.22;;;21.28;56.54
3960;BME280;1994;48.640;8.894;2022-08-01T01:00:26;96268.66;;;21.22;56.52
3960;BME280;1994;48.640;8.894;2022-08-01T01:02:52;96261.66;;;21.17;56.88
3960;BME280;1994;48.640;8.894;2022-08-01T01:05:18;96261.66;;;21.17;56.76
3960;BME280;1994;48.640;8.894;2022-08-01T01:10:46;96262.81;;;21.25;56.57
3960;BME280;1994;48.640;8.894;2022-08-01T01:15:57;96267.50;;;21.28;56.63
3960;BME280;1994;48.640;8.894;2022-08-01T01:29:44;96281.59;;;21.10;57.37
3960;BME280;1994;48.640;8.894;2022-08-01T01:32:35;96273.22;;;21.08;56.97
3960;BME280;1994;48.640;8.894;2022-08-01T01:35:21;96274.97;;;20.99;58.35
3960;BME280;1994;48.640;8.894;2022-08-01T01:37:56;96270.38;;;20.91;58.11
3960;BME280;1994;48.640;8.894;2022-08-01T01:40:24;96277.88;;;20.84;58.30
3960;BME280;1994;48.640;8.894;2022-08-01T01:42:51;96278.84;;;20.88;58.70
3960;BME280;1994;48.640;8.894;2022-08-01T01:45:18;96286.50;;;20.89;59.03
3960;BME280;1994;48.640;8.894;2022-08-01T01:47:45;96275.16;;;20.89;58.82
3960;BME280;1994;48.640;8.894;2022-08-01T01:50:11;96279.84;;;20.92;58.49
3960;BME280;1994;48.640;8.894;2022-08-01T01:52:39;96284.63;;;20.90;58.52
3960;BME280;1994;48.640;8.894;2022-08-01T01:55:08;96279.25;;;20.95;58.66
3960;BME280;1994;48.640;8.894;2022-08-01T01:57:40;96286.06;;;20.96;58.47
3960;BME280;1994;48.640;8.894;2022-08-01T02:00:08;96281.59;;;20.96;58.77
3960;BME280;1994;48.640;8.894;2022-08-01T02:02:37;96277.69;;;20.94;58.58
3960;BME280;1994;48.640;8.894;2022-08-01T02:05:06;96275.16;;;20.89;58.65
3960;BME280;1994;48.640;8.894;2022-08-01T02:07:35;96275.72;;;20.86;58.91
3960;BME280;1994;48.640;8.894;2022-08-01T02:10:04;96266.75;;;20.87;58.83
3960;BME280;1994;48.640;8.894;2022-08-01T02:12:36;96274.16;;;20.85;58.84
3960;BME280;1994;48.640;8.894;2022-08-01T02:15:06;96278.66;;;20.84;58.79
3960;BME280;1994;48.640;8.894;2022-08-01T02:17:41;96277.97;;;20.79;59.02
3960;BME280;1994;48.640;8.894;2022-08-01T02:20:12;96277.41;;;20.68;59.61
3960;BME280;1994;48.640;8.894;2022-08-01T02:23:12;96284.31;;;20.64;59.95
3960;BME280;1994;48.640;8.894;2022-08-01T02:25:53;96279.22;;;20.41;60.71
3960;BME280;1994;48.640;8.894;2022-08-01T02:28:28;96271.84;;;20.43;60.96
3960;BME280;1994;48.640;8.894;2022-08-01T02:31:06;96274.94;;;20.45;60.91
3960;BME280;1994;48.640;8.894;2022-08-01T02:33:43;96276.31;;;20.42;61.52
3960;BME280;1994;48.640;8.894;2022-08-01T02:36:11;96276.50;;;20.46;60.96
3960;BME280;1994;48.640;8.894;2022-08-01T02:38:45;96280.78;;;20.42;61.27
3960;BME280;1994;48.640;8.894;2022-08-01T02:41:20;96284.41;;;20.46;60.81
3960;BME280;1994;48.640;8.894;2022-08-01T02:43:53;96276.50;;;20.46;61.20
3960;BME280;1994;48.640;8.894;2022-08-01T02:46:40;96285.00;;;20.43;61.87
3960;BME280;1994;48.640;8.894;2022-08-01T02:49:15;96292.88;;;20.43;61.46
3960;BME280;1994;48.640;8.894;2022-08-01T02:51:43;96288.00;;;20.36;61.51
3960;BME280;1994;48.640;8.894;2022-08-01T02:54:13;96286.63;;;20.39;61.47
3960;BME280;1994;48.640;8.894;2022-08-01T02:56:44;96284.09;;;20.34;61.80
3960;BME280;1994;48.640;8.894;2022-08-01T02:59:16;96292.47;;;20.36;61.75
3960;BME280;1994;48.640;8.894;2022-08-01T03:01:45;96285.00;;;20.43;61.58
3960;BME280;1994;48.640;8.894;2022-08-01T03:04:13;96291.38;;;20.37;62.06
3960;BME280;1994;48.640;8.894;2022-08-01T03:06:41;96293.84;;;20.47;61.80
3960;BME280;1994;48.640;8.894;2022-08-01T03:09:10;96288.50;;;20.52;61.56
3960;BME280;1994;48.640;8.894;2022-08-01T03:11:40;96287.63;;;20.43;62.39
3960;BME280;1994;48.640;8.894;2022-08-01T03:14:09;96288.28;;;20.35;62.22
3960;BME280;1994;48.640;8.894;2022-08-01T03:16:41;96286.81;;;20.29;62.33
3960;BME280;1994;48.640;8.894;2022-08-01T03:19:11;96283.19;;;20.25;62.28
3960;BME280;1994;48.640;8.894;2022-08-01T03:21:38;96281.06;;;20.27;62.15
3960;BME280;1994;48.640;8.894;2022-08-01T03:24:06;96285.63;;;20.21;63.18
3960;BME280;1994;48.640;8.894;2022-08-01T03:26:35;96297.09;;;20.12;63.17
3960;BME280;1994;48.640;8.894;2022-08-01T03:29:14;96287.16;;;20.09;63.37
3960;BME280;1994;48.640;8.894;2022-08-01T03:31:45;96291.97;;;20.02;63.71
3960;BME280;1994;48.640;8.894;2022-08-01T03:34:11;96291.38;;;20.10;64.14
3960;BME280;1994;48.640;8.894;2022-08-01T03:37:11;96293.69;;;19.93;64.34
3960;BME280;1994;48.640;8.894;2022-08-01T03:40:11;96289.59;;;19.87;64.88
3960;BME280;1994;48.640;8.894;2022-08-01T03:42:49;96291.72;;;19.85;65.47
3960;BME280;1994;48.640;8.894;2022-08-01T03:45:23;96283.66;;;19.63;65.92
3960;BME280;1994;48.640;8.894;2022-08-01T03:48:00;96294.47;;;19.43;66.82
3960;BME280;1994;48.640;8.894;2022-08-01T03:50:28;96296.00;;;19.44;66.96
3960;BME280;1994;48.640;8.894;2022-08-01T03:52:57;96299.84;;;19.33;67.42
3960;BME280;1994;48.640;8.894;2022-08-01T03:55:25;96289.38;;;19.09;68.47
3960;BME280;1994;48.640;8.894;2022-08-01T03:57:51;96286.69;;;18.96;69.36
3960;BME280;1994;48.640;8.894;2022-08-01T04:00:18;96290.97;;;18.87;69.86
3960;BME280;1994;48.640;8.894;2022-08-01T04:02:48;96286.84;;;18.81;70.16
3960;BME280;1994;48.640;8.894;2022-08-01T04:05:15;96291.66;;;18.74;70.77
3960;BME280;1994;48.640;8.894;2022-08-01T04:07:49;96288.09;;;18.65;71.18
3960;BME280;1994;48.640;8.894;2022-08-01T04:10:23;96290.97;;;18.63;71.28
3960;BME280;1994;48.640;8.894;2022-08-01T04:12:49;96294.34;;;18.69;71.09
3960;BME280;1994;48.640;8.894;2022-08-01T04:15:15;96286.97;;;18.71;71.04
3960;BME280;1994;48.640;8.894;2022-08-01T04:17:41;96298.00;;;18.68;71.03
3960;BME280;1994;48.640;8.894;2022-08-01T04:20:08;96288.50;;;18.72;71.00
3960;BME280;1994;48.640;8.894;2022-08-01T04:22:34;96290.06;;;18.73;71.06
3960;BME280;1994;48.640;8.894;2022-08-01T04:25:04;96295.56;;;18.76;70.77
3960;BME280;1994;48.640;8.894;2022-08-01T04:27:46;96297.72;;;18.93;70.51
3960;BME280;1994;48.640;8.894;2022-08-01T04:30:13;96300.28;;;18.98;70.28
3960;BME280;1994;48.640;8.894;2022-08-01T04:32:42;96301.50;;;19.05;70.42
3960;BME280;1994;48.640;8.894;2022-08-01T04:35:13;96313.22;;;19.13;70.43
3960;BME280;1994;48.640;8.894;2022-08-01T04:37:46;96311.59;;;19.17;70.36
3960;BME280;1994;48.640;8.894;2022-08-01T04:40:15;96306.81;;;19.00;70.62
3960;BME280;1994;48.640;8.894;2022-08-01T04:42:41;96305.16;;;18.86;71.50
3960;BME280;1994;48.640;8.894;2022-08-01T04:45:08;96309.72;;;18.99;71.19
3960;BME280;1994;48.640;8.894;2022-08-01T04:47:36;96306.97;;;19.09;71.03
3960;BME280;1994;48.640;8.894;2022-08-01T04:50:07;96307.41;;;19.16;70.58
3960;BME280;1994;48.640;8.894;2022-08-01T04:52:39;96308.59;;;19.28;70.67
3960;BME280;1994;48.640;8.894;2022-08-01T04:55:08;96302.53;;;19.28;71.29
3960;BME280;1994;48.640;8.894;2022-08-01T04:57:38;96304.63;;;19.31;70.77
3960;BME280;1994;48.640;8.894;2022-08-01T05:00:06;96306.53;;;19.44;70.41
3960;BME280;1994;48.640;8.894;2022-08-01T05:02:32;96307.53;;;19.48;70.48
3960;BME280;1994;48.640;8.894;2022-08-01T05:04:58;96304.63;;;19.49;70.95
3960;BME280;1994;48.640;8.894;2022-08-01T05:07:24;96300.56;;;19.57;70.75
3960;BME280;1994;48.640;8.894;2022-08-01T05:09:50;96299.50;;;19.58;71.20
3960;BME280;1994;48.640;8.894;2022-08-01T05:12:16;96297.44;;;19.55;71.46
3960;BME280;1994;48.640;8.894;2022-08-01T05:14:42;96303.06;;;19.67;71.32
3960;BME280;1994;48.640;8.894;2022-08-01T05:17:09;96302.88;;;19.77;71.21
3960;BME280;1994;48.640;8.894;2022-08-01T05:19:37;96305.50;;;19.77;70.76
3960;BME280;1994;48.640;8.894;2022-08-01T05:22:07;96300.91;;;19.87;70.13
3960;BME280;1994;48.640;8.894;2022-08-01T05:24:38;96308.34;;;19.99;69.49
3960;BME280;1994;48.640;8.894;2022-08-01T05:27:05;96300.94;;;20.01;69.28
3960;BME280;1994;48.640;8.894;2022-08-01T05:29:34;96300.81;;;20.11;68.54
3960;BME280;1994;48.640;8.894;2022-08-01T05:32:00;96297.59;;;20.14;68.62
3960;BME280;1994;48.640;8.894;2022-08-01T05:34:26;96297.91;;;20.26;68.62
3960;BME280;1994;48.640;8.894;2022-08-01T05:36:55;96305.94;;;20.34;68.49
3960;BME280;1994;48.640;8.894;2022-08-01T05:39:21;96302.63;;;20.42;67.80
3960;BME280;1994;48.640;8.894;2022-08-01T05:41:47;96307.91;;;20.56;67.06
3960;BME280;1994;48.640;8.894;2022-08-01T05:44:12;96310.44;;;20.61;66.85
3960;BME280;1994;48.640;8.894;2022-08-01T05:46:38;96306.16;;;20.65;66.23
3960;BME280;1994;48.640;8.894;2022-08-01T05:49:07;96311.72;;;20.77;65.90
3960;BME280;1994;48.640;8.894;2022-08-01T05:51:33;96313.38;;;20.73;66.10
3960;BME280;1994;48.640;8.894;2022-08-01T05:54:00;96315.34;;;20.81;66.25
3960;BME280;1994;48.640;8.894;2022-08-01T05:56:26;96310.44;;;20.88;66.15
3960;BME280;1994;48.640;8.894;2022-08-01T05:58:52;96312.09;;;20.84;66.10
3960;BME280;1994;48.640;8.894;2022-08-01T06:01:19;96310.53;;;20.83;65.74
3960;BME280;1994;48.640;8.894;2022-08-01T06:03:45;96310.28;;;20.98;65.74
3960;BME280;1994;48.640;8.894;2022-08-01T06:06:11;96308.13;;;21.00;64.79
3960;BME280;1994;48.640;8.894;2022-08-01T06:08:37;96308.91;;;21.14;64.52
3960;BME280;1994;48.640;8.894;2022-08-01T06:11:03;96298.75;;;21.21;64.35
3960;BME280;1994;48.640;8.894;2022-08-01T06:13:29;96306.16;;;21.19;63.45
3960;BME280;1994;48.640;8.894;2022-08-01T06:15:55;96306.53;;;21.26;63.98
3960;BME280;1994;48.640;8.894;2022-08-01T06:18:21;96306.31;;;21.36;63.43
3960;BME280;1994;48.640;8.894;2022-08-01T06:20:48;96310.16;;;21.30;63.25
3960;BME280;1994;48.640;8.894;2022-08-01T06:23:14;96312.38;;;21.23;63.93
3960;BME280;1994;48.640;8.894;2022-08-01T06:25:44;96314.91;;;21.28;63.77
3960;BME280;1994;48.640;8.894;2022-08-01T06:28:19;96315.06;;;21.45;64.00
3960;BME280;1994;48.640;8.894;2022-08-01T06:30:45;96312.28;;;21.63;63.63
3960;BME280;1994;48.640;8.894;2022-08-01T06:33:11;96311.56;;;21.85;63.30
3960;BME280;1994;48.640;8.894;2022-08-01T06:35:37;96313.00;;;21.91;62.55
3960;BME280;1994;48.640;8.894;2022-08-01T06:38:03;96312.16;;;22.04;62.22
3960;BME280;1994;48.640;8.894;2022-08-01T06:40:29;96315.63;;;22.13;61.91
3960;BME280;1994;48.640;8.894;2022-08-01T06:42:55;96314.78;;;22.04;61.84
3960;BME280;1994;48.640;8.894;2022-08-01T06:45:21;96312.78;;;22.01;62.29
3960;BME280;1994;48.640;8.894;2022-08-01T06:47:51;96322.34;;;22.19;62.17
3960;BME280;1994;48.640;8.894;2022-08-01T06:50:18;96321.72;;;22.44;61.30
3960;BME280;1994;48.640;8.894;2022-08-01T06:52:44;96322.84;;;22.51;60.84
3960;BME280;1994;48.640;8.894;2022-08-01T06:55:10;96310.47;;;22.60;61.27
3960;BME280;1994;48.640;8.894;2022-08-01T06:57:36;96310.38;;;22.74;60.74
3960;BME280;1994;48.640;8.894;2022-08-01T07:00:07;96309.50;;;22.87;60.26
3960;BME280;1994;48.640;8.894;2022-08-01T07:02:35;96314.50;;;22.97;59.50
3960;BME280;1994;48.640;8.894;2022-08-01T07:05:03;96324.31;;;22.96;60.38
3960;BME280;1994;48.640;8.894;2022-08-01T07:07:30;96317.31;;;23.09;60.37
3960;BME280;1994;48.640;8.894;2022-08-01T07:09:59;96310.56;;;23.25;59.81
3960;BME280;1994;48.640;8.894;2022-08-01T07:12:25;96316.81;;;23.46;59.45
3960;BME280;1994;48.640;8.894;2022-08-01T07:14:51;96314.81;;;23.60;59.04
3960;BME280;1994;48.640;8.894;2022-08-01T07:17:16;96317.00;;;23.75;57.67
3960;BME280;1994;48.640;8.894;2022-08-01T07:19:42;96318.72;;;23.71;57.99
3960;BME280;1994;48.640;8.894;2022-08-01T07:22:08;96315.13;;;23.67;57.87
3960;BME280;1994;48.640;8.894;2022-08-01T07:24:34;96314.81;;;23.68;57.66
3960;BME280;1994;48.640;8.894;2022-08-01T07:27:00;96314.19;;;23.80;57.79
3960;BME280;1994;48.640;8.894;2022-08-01T07:29:29;96311.88;;;23.70;57.87
3960;BME280;1994;48.640;8.894;2022-08-01T07:31:57;96308.59;;;23.73;57.96
3960;BME280;1994;48.640;8.894;2022-08-01T07:34:24;96303.28;;;23.98;57.51
3960;BME280;1994;48.640;8.894;2022-08-01T07:36:51;96311.56;;;23.97;57.36
3960;BME280;1994;48.640;8.894;2022-08-01T07:39:18;96300.97;;;24.14;57.50
3960;BME280;1994;48.640;8.894;2022-08-01T07:41:43;96310.88;;;24.34;57.00
3960;BME280;1994;48.640;8.894;2022-08-01T07:44:09;96306.94;;;24.40;56.26
3960;BME280;1994;48.640;8.894;2022-08-01T07:46:35;96305.22;;;24.44;56.73
3960;BME280;1994;48.640;8.894;2022-08-01T07:49:01;96304.25;;;24.74;56.41
3960;BME280;1994;48.640;8.894;2022-08-01T07:51:27;96301.75;;;24.69;54.75
3960;BME280;1994;48.640;8.894;2022-08-01T07:53:59;96292.88;;;24.65;55.99
3960;BME280;1994;48.640;8.894;2022-08-01T07:56:25;96291.44;;;24.76;55.80
3960;BME280;1994;48.640;8.894;2022-08-01T07:58:51;96300.41;;;24.92;55.31
3960;BME280;1994;48.640;8.894;2022-08-01T08:01:17;96294.09;;;25.05;54.71
3960;BME280;1994;48.640;8.894;2022-08-01T08:03:46;96294.50;;;25.15;54.49
3960;BME280;1994;48.640;8.894;2022-08-01T08:06:12;96293.94;;;25.39;53.85
3960;BME280;1994;48.640;8.894;2022-08-01T08:08:38;96292.25;;;25.55;53.28
3960;BME280;1994;48.640;8.894;2022-08-01T08:11:04;96295.88;;;25.71;53.27
3960;BME280;1994;48.640;8.894;2022-08-01T08:13:30;96293.25;;;25.62;53.02
3960;BME280;1994;48.640;8.894;2022-08-01T08:15:56;96297.75;;;25.91;52.41
3960;BME280;1994;48.640;8.894;2022-08-01T08:18:27;96298.25;;;26.05;51.77
3960;BME280;1994;48.640;8.894;2022-08-01T08:20:52;96297.22;;;26.30;52.01
3960;BME280;1994;48.640;8.894;2022-08-01T08:23:21;96289.72;;;26.44;51.28
3960;BME280;1994;48.640;8.894;2022-08-01T08:26:06;96292.72;;;26.54;51.01
3960;BME280;1994;48.640;8.894;2022-08-01T08:28:32;96281.38;;;27.02;49.22
3960;BME280;1994;48.640;8.894;2022-08-01T08:30:58;96276.59;;;27.43;47.62
3960;BME280;1994;48.640;8.894;2022-08-01T08:33:23;96279.50;;;28.21;46.69
3960;BME280;1994;48.640;8.894;2022-08-01T08:35:52;96282.63;;;28.66;45.41
3960;BME280;1994;48.640;8.894;2022-08-01T08:38:19;96282.97;;;28.37;44.58
3960;BME280;1994;48.640;8.894;2022-08-01T08:40:46;96279.25;;;28.38;45.71
3960;BME280;1994;48.640;8.894;2022-08-01T08:43:13;96274.34;;;28.55;44.97
3960;BME280;1994;48.640;8.894;2022-08-01T08:45:41;96276.81;;;29.26;43.91
3960;BME280;1994;48.640;8.894;2022-08-01T08:48:08;96271.03;;;29.24;43.04
3960;BME280;1994;48.640;8.894;2022-08-01T08:50:34;96279.88;;;29.28;42.95
3960;BME280;1994;48.640;8.894;2022-08-01T08:53:02;96273.88;;;29.31;43.81
3960;BME280;1994;48.640;8.894;2022-08-01T08:55:28;96273.16;;;29.34;42.82
3960;BME280;1994;48.640;8.894;2022-08-01T08:57:55;96277.72;;;28.99;43.66
3960;BME280;1994;48.640;8.894;2022-08-01T09:00:22;96279.06;;;28.77;44.40
3960;BME280;1994;48.640;8.894;2022-08-01T09:02:48;96281.44;;;28.36;44.94
3960;BME280;1994;48.640;8.894;2022-08-01T09:05:15;96280.78;;;28.39;44.63
3960;BME280;1994;48.640;8.894;2022-08-01T09:07:42;96280.72;;;28.66;44.12
3960;BME280;1994;48.640;8.894;2022-08-01T09:10:08;96280.97;;;28.77;43.01
3960;BME280;1994;48.640;8.894;2022-08-01T09:12:37;96282.09;;;28.76;43.38
3960;BME280;1994;48.640;8.894;2022-08-01T09:15:03;96277.34;;;29.16;42.89
3960;BME280;1994;48.640;8.894;2022-08-01T09:17:40;96284.47;;;30.00;40.07
3960;BME280;1994;48.640;8.894;2022-08-01T09:20:08;96277.56;;;29.99;40.06
3960;BME280;1994;48.640;8.894;2022-08-01T09:22:47;96282.22;;;30.21;39.96
3960;BME280;1994;48.640;8.894;2022-08-01T09:25:13;96285.16;;;29.78;40.24
3960;BME280;1994;48.640;8.894;2022-08-01T09:27:39;96279.88;;;29.28;40.32
3960;BME280;1994;48.640;8.894;2022-08-01T09:30:16;96285.03;;;29.90;39.82
3960;BME280;1994;48.640;8.894;2022-08-01T09:33:00;96281.66;;;30.53;38.69
3960;BME280;1994;48.640;8.894;2022-08-01T09:35:36;96283.84;;;30.93;37.79
3960;BME280;1994;48.640;8.894;2022-08-01T09:38:21;96275.97;;;31.26;37.94
3960;BME280;1994;48.640;8.894;2022-08-01T09:40:51;96276.13;;;31.66;36.78
3960;BME280;1994;48.640;8.894;2022-08-01T09:43:19;96278.81;;;31.66;35.80
3960;BME280;1994;48.640;8.894;2022-08-01T09:45:46;96278.38;;;31.93;35.27
3960;BME280;1994;48.640;8.894;2022-08-01T09:48:12;96286.38;;;31.90;35.06
3960;BME280;1994;48.640;8.894;2022-08-01T09:50:41;96277.63;;;31.93;34.66
3960;BME280;1994;48.640;8.894;2022-08-01T09:53:09;96272.56;;;31.29;35.86
3960;BME280;1994;48.640;8.894;2022-08-01T09:55:35;96276.94;;;31.40;36.53
3960;BME280;1994;48.640;8.894;2022-08-01T09:58:01;96271.56;;;31.70;35.45
3960;BME280;1994;48.640;8.894;2022-08-01T10:00:34;96281.59;;;30.95;36.60
3960;BME280;1994;48.640;8.894;2022-08-01T10:03:22;96268.22;;;31.21;37.68
3960;BME280;1994;48.640;8.894;2022-08-01T10:05:50;96261.31;;;31.46;36.23
3960;BME280;1994;48.640;8.894;2022-08-01T10:08:17;96264.91;;;31.57;36.12
3960;BME280;1994;48.640;8.894;2022-08-01T10:11:08;96263.38;;;31.04;36.73
3960;BME280;1994;48.640;8.894;2022-08-01T10:13:34;96265.41;;;30.88;38.29
3960;BME280;1994;48.640;8.894;2022-08-01T10:16:06;96266.25;;;30.92;37.40
3960;BME280;1994;48.640;8.894;2022-08-01T10:18:34;96255.50;;;31.14;37.45
3960;BME280;1994;48.640;8.894;2022-08-01T10:21:03;96257.41;;;31.69;35.06
3960;BME280;1994;48.640;8.894;2022-08-01T10:23:35;96251.72;;;31.41;35.81
3960;BME280;1994;48.640;8.894;2022-08-01T10:26:02;96261.84;;;31.03;36.00
3960;BME280;1994;48.640;8.894;2022-08-01T10:28:31;96250.59;;;30.68;37.13
3960;BME280;1994;48.640;8.894;2022-08-01T10:31:00;96248.91;;;30.15;38.92
3960;BME280;1994;48.640;8.894;2022-08-01T10:33:29;96250.81;;;29.57;39.84
3960;BME280;1994;48.640;8.894;2022-08-01T10:35:57;96252.34;;;29.24;40.66
3960;BME280;1994;48.640;8.894;2022-08-01T10:38:23;96251.13;;;29.37;40.54
3960;BME280;1994;48.640;8.894;2022-08-01T10:40:50;96253.41;;;29.19;40.19
3960;BME280;1994;48.640;8.894;2022-08-01T10:43:18;96256.94;;;29.08;40.78
3960;BME280;1994;48.640;8.894;2022-08-01T10:45:44;96252.06;;;28.79;41.20
3960;BME280;1994;48.640;8.894;2022-08-01T10:48:36;96248.78;;;28.70;41.13
3960;BME280;1994;48.640;8.894;2022-08-01T10:51:06;96252.16;;;28.82;41.51
3960;BME280;1994;48.640;8.894;2022-08-01T10:53:32;96251.81;;;28.84;41.25
3960;BME280;1994;48.640;8.894;2022-08-01T10:56:05;96251.91;;;28.72;41.28
3960;BME280;1994;48.640;8.894;2022-08-01T10:58:37;96255.84;;;28.78;41.86
3960;BME280;1994;48.640;8.894;2022-08-01T11:12:17;96246.22;;;28.58;42.23
3960;BME280;1994;48.640;8.894;2022-08-01T11:17:38;96246.09;;;29.89;40.07
3960;BME280;1994;48.640;8.894;2022-08-01T11:38:47;96214.59;;;28.72;40.63
3960;BME280;1994;48.640;8.894;2022-08-01T11:46:49;96216.84;;;28.39;41.12
3960;BME280;1994;48.640;8.894;2022-08-01T11:52:29;96219.53;;;28.89;41.60
3960;BME280;1994;48.640;8.894;2022-08-01T11:57:31;96217.00;;;30.48;36.74
3960;BME280;1994;48.640;8.894;2022-08-01T12:02:37;96205.00;;;31.39;36.33
3960;BME280;1994;48.640;8.894;2022-08-01T12:07:35;96194.84;;;31.51;35.27
3960;BME280;1994;48.640;8.894;2022-08-01T12:10:11;96187.91;;;31.80;34.20
3960;BME280;1994;48.640;8.894;2022-08-01T12:12:53;96183.41;;;31.91;34.97
3960;BME280;1994;48.640;8.894;2022-08-01T12:15:22;96184.44;;;32.16;33.85
3960;BME280;1994;48.640;8.894;2022-08-01T12:17:58;96182.31;;;32.32;33.23
3960;BME280;1994;48.640;8.894;2022-08-01T12:20:32;96180.16;;;32.48;33.84
3960;BME280;1994;48.640;8.894;2022-08-01T12:23:06;96178.09;;;31.94;33.97
3960;BME280;1994;48.640;8.894;2022-08-01T12:25:35;96180.00;;;31.57;34.68
3960;BME280;1994;48.640;8.894;2022-08-01T12:28:04;96180.84;;;31.32;34.81
3960;BME280;1994;48.640;8.894;2022-08-01T12:30:32;96180.09;;;31.09;35.05
3960;BME280;1994;48.640;8.894;2022-08-01T12:33:05;96186.03;;;31.51;34.63
3960;BME280;1994;48.640;8.894;2022-08-01T12:35:35;96179.16;;;31.53;33.78
3960;BME280;1994;48.640;8.894;2022-08-01T12:38:07;96181.63;;;31.69;33.99
3960;BME280;1994;48.640;8.894;2022-08-01T12:40:45;96183.16;;;31.70;33.41
3960;BME280;1994;48.640;8.894;2022-08-01T12:43:18;96189.03;;;32.19;33.17
3960;BME280;1994;48.640;8.894;2022-08-01T12:45:45;96173.72;;;32.16;32.77
3960;BME280;1994;48.640;8.894;2022-08-01T12:48:15;96173.47;;;32.28;32.26
3960;BME280;1994;48.640;8.894;2022-08-01T12:50:49;96167.09;;;32.43;32.87
3960;BME280;1994;48.640;8.894;2022-08-01T12:53:22;96161.72;;;32.97;32.06
3960;BME280;1994;48.640;8.894;2022-08-01T12:55:54;96170.75;;;33.36;30.41
3960;BME280;1994;48.640;8.894;2022-08-01T12:58:21;96171.63;;;33.61;30.90
3960;BME280;1994;48.640;8.894;2022-08-01T13:00:50;96166.44;;;33.24;30.91
3960;BME280;1994;48.640;8.894;2022-08-01T13:03:27;96163.47;;;32.75;32.14
3960;BME280;1994;48.640;8.894;2022-08-01T13:05:58;96172.19;;;32.15;33.61
3960;BME280;1994;48.640;8.894;2022-08-01T13:11:11;96163.63;;;33.00;32.95
3960;BME280;1994;48.640;8.894;2022-08-01T13:13:48;96172.31;;;33.44;31.28
3960;BME280;1994;48.640;8.894;2022-08-01T13:16:23;96161.97;;;32.78;32.99
3960;BME280;1994;48.640;8.894;2022-08-01T13:18:52;96161.31;;;32.95;32.00
3960;BME280;1994;48.640;8.894;2022-08-01T13:24:12;96158.47;;;33.35;31.28
3960;BME280;1994;48.640;8.894;2022-08-01T13:26:49;96152.44;;;33.66;30.65
3960;BME280;1994;48.640;8.894;2022-08-01T13:29:21;96148.69;;;33.88;30.49
3960;BME280;1994;48.640;8.894;2022-08-01T13:31:49;96152.19;;;34.34;29.85
3960;BME280;1994;48.640;8.894;2022-08-01T13:34:15;96153.34;;;34.61;29.94
3960;BME280;1994;48.640;8.894;2022-08-01T13:36:42;96151.00;;;34.73;29.04
3960;BME280;1994;48.640;8.894;2022-08-01T13:39:08;96160.22;;;34.20;29.38
3960;BME280;1994;48.640;8.894;2022-08-01T13:41:52;96157.78;;;33.52;30.33
3960;BME280;1994;48.640;8.894;2022-08-01T13:44:19;96150.66;;;33.09;30.99
3960;BME280;1994;48.640;8.894;2022-08-01T13:46:45;96142.22;;;33.07;30.82
3960;BME280;1994;48.640;8.894;2022-08-01T13:49:15;96139.72;;;32.74;31.80
3960;BME280;1994;48.640;8.894;2022-08-01T13:51:42;96144.13;;;32.49;33.72
3960;BME280;1994;48.640;8.894;2022-08-01T13:54:10;96153.84;;;32.24;34.45
3960;BME280;1994;48.640;8.894;2022-08-01T13:56:36;96157.59;;;32.12;34.54
3960;BME280;1994;48.640;8.894;2022-08-01T13:59:02;96163.13;;;31.57;36.02
3960;BME280;1994;48.640;8.894;2022-08-01T14:01:28;96158.44;;;31.47;36.64
3960;BME280;1994;48.640;8.894;2022-08-01T14:03:54;96157.53;;;31.36;36.84
3960;BME280;1994;48.640;8.894;2022-08-01T14:06:20;96157.22;;;31.41;36.63
3960;BME280;1994;48.640;8.894;2022-08-01T14:08:48;96156.06;;;31.42;36.65
3960;BME280;1994;48.640;8.894;2022-08-01T14:11:14;96159.84;;;31.37;37.05
3960;BME280;1994;48.640;8.894;2022-08-01T14:13:40;96151.09;;;31.40;36.64
3960;BME280;1994;48.640;8.894;2022-08-01T14:16:06;96151.38;;;31.32;35.97
3960;BME280;1994;48.640;8.894;2022-08-01T14:18:33;96139.66;;;31.14;36.80
3960;BME280;1994;48.640;8.894;2022-08-01T14:20:59;96136.34;;;30.94;36.80
3960;BME280;1994;48.640;8.894;2022-08-01T14:23:25;96140.44;;;30.62;37.10
3960;BME280;1994;48.640;8.894;2022-08-01T14:25:51;96138.88;;;30.58;37.50
3960;BME280;1994;48.640;8.894;2022-08-01T14:28:19;96140.41;;;30.59;36.82
3960;BME280;1994;48.640;8.894;2022-08-01T14:30:49;96144.88;;;30.51;37.22
3960;BME280;1994;48.640;8.894;2022-08-01T14:33:15;96145.22;;;30.50;37.01
3960;BME280;1994;48.640;8.894;2022-08-01T14:35:41;96149.50;;;30.54;37.07
3960;BME280;1994;48.640;8.894;2022-08-01T14:38:07;96151.72;;;30.49;37.22
3960;BME280;1994;48.640;8.894;2022-08-01T14:40:34;96146.78;;;30.51;37.31
3960;BME280;1994;48.640;8.894;2022-08-01T14:43:03;96154.81;;;30.51;36.52
3960;BME280;1994;48.640;8.894;2022-08-01T14:45:29;96155.63;;;30.55;36.56